Time;durP1;ratioP1;P1;durP2;ratioP2;P2;SDS_P1;SDS_P2;PMS_P1;PMS_P2;Temp;Humidity;BMP_temperature;BMP_pressure;BME280_temperature;BME280_humidity;BME280_pressure;Samples;Min_cycle;Max_cycle;Signal;HPM_P1;HPM_P2
2022/11/24 00:00:32;;;;;;;34.80;14.63;;;6.60;99.90;;;;;;5058167;28;20506;-46
2022/11/24 00:02:59;;;;;;;34.13;13.75;;;6.60;99.90;;;;;;5058491;28;20693;-42
2022/11/24 00:05:25;;;;;;;32.22;14.07;;;6.70;99.90;;;;;;5057768;28;20521;-45
2022/11/24 00:07:51;;;;;;;35.35;14.23;;;6.50;99.90;;;;;;5056840;28;20556;-46
2022/11/24 00:10:17;;;;;;;26.08;13.75;;;6.60;99.90;;;;;;5058072;28;20066;-44
2022/11/24 00:12:42;;;;;;;38.28;13.93;;;6.50;99.90;;;;;;5057594;28;20111;-43
2022/11/24 00:15:08;;;;;;;31.13;13.13;;;6.60;99.90;;;;;;5057396;28;20040;-43
2022/11/24 00:17:34;;;;;;;28.98;13.43;;;6.60;99.90;;;;;;5056322;28;20510;-44
2022/11/24 00:19:59;;;;;;;34.40;13.18;;;6.50;99.90;;;;;;5057431;28;20536;-48
2022/11/24 00:22:25;;;;;;;29.70;13.15;;;6.50;99.90;;;;;;5053046;28;20083;-46
2022/11/24 00:24:50;;;;;;;34.17;13.75;;;6.50;99.90;;;;;;5057889;28;20131;-43
2022/11/24 00:27:16;;;;;;;34.50;14.45;;;6.60;99.90;;;;;;5056473;28;20064;-42
2022/11/24 00:29:42;;;;;;;34.25;12.23;;;6.50;99.90;;;;;;5057559;28;20130;-43
2022/11/24 00:32:07;;;;;;;38.53;13.70;;;6.50;99.90;;;;;;5057042;28;20634;-43
2022/11/24 00:34:33;;;;;;;36.92;13.18;;;6.60;99.90;;;;;;5057005;28;20044;-45
2022/11/24 00:36:59;;;;;;;36.63;14.27;;;6.40;99.90;;;;;;5056555;28;20402;-48
2022/11/24 00:39:25;;;;;;;29.52;12.32;;;6.50;99.90;;;;;;5056173;28;20453;-49
2022/11/24 00:41:50;;;;;;;35.95;12.95;;;6.50;99.90;;;;;;5057778;28;20738;-44
2022/11/24 00:44:16;;;;;;;33.45;11.75;;;6.50;99.90;;;;;;5057217;28;20055;-46
2022/11/24 00:46:42;;;;;;;33.72;11.65;;;6.40;99.90;;;;;;5056235;28;20063;-45
2022/11/24 00:49:07;;;;;;;42.40;12.82;;;6.50;99.90;;;;;;5056626;28;20044;-47
2022/11/24 00:51:33;;;;;;;38.08;11.05;;;6.50;99.90;;;;;;5057121;28;20117;-45
2022/11/24 00:54:00;;;;;;;35.83;10.95;;;6.50;99.90;;;;;;5056984;28;20049;-48
2022/11/24 00:56:27;;;;;;;40.78;11.20;;;6.60;99.90;;;;;;5058022;28;20048;-43
2022/11/24 00:58:53;;;;;;;41.47;11.35;;;6.50;99.90;;;;;;5056227;28;20045;-47
2022/11/24 01:01:32;;;;;;;31.70;10.75;;;6.60;99.90;;;;;;5055857;28;20057;-43
2022/11/24 01:04:00;;;;;;;38.03;10.07;;;6.60;99.90;;;;;;5057128;28;20208;-47
2022/11/24 01:06:27;;;;;;;36.45;10.73;;;6.80;99.90;;;;;;5056682;28;20048;-45
2022/11/24 01:08:54;;;;;;;31.05;10.13;;;6.70;99.90;;;;;;5055629;28;20048;-44
2022/11/24 01:11:23;;;;;;;36.55;10.00;;;6.80;99.90;;;;;;5057514;28;20051;-43
2022/11/24 01:13:54;;;;;;;35.80;10.02;;;6.90;99.90;;;;;;5056477;28;20040;-46
2022/11/24 01:16:32;;;;;;;34.55;8.80;;;6.90;99.90;;;;;;5056081;28;20076;-46
2022/11/24 01:18:59;;;;;;;29.15;8.88;;;7.00;99.90;;;;;;5056246;28;20160;-46
2022/11/24 01:21:24;;;;;;;24.98;9.05;;;7.00;99.90;;;;;;5053408;28;20104;-48
2022/11/24 01:23:50;;;;;;;31.65;8.30;;;7.00;99.90;;;;;;5056465;28;20538;-47
2022/11/24 01:26:18;;;;;;;32.90;8.88;;;7.00;99.90;;;;;;5056744;28;20044;-43
2022/11/24 01:28:44;;;;;;;28.80;8.57;;;7.00;99.90;;;;;;5055016;28;20044;-43
2022/11/24 01:31:10;;;;;;;38.83;8.35;;;7.10;99.90;;;;;;5056370;28;20590;-48
2022/11/24 01:33:36;;;;;;;31.65;8.90;;;7.10;99.90;;;;;;5054782;28;20185;-43
2022/11/24 01:36:03;;;;;;;32.00;8.02;;;7.10;99.90;;;;;;5056821;28;20051;-50
2022/11/24 01:38:29;;;;;;;30.27;7.57;;;7.00;99.90;;;;;;5055174;28;20040;-49
2022/11/24 01:41:14;;;;;;;24.80;6.57;;;7.10;99.90;;;;;;5056063;28;20052;-45
2022/11/24 01:43:41;;;;;;;28.08;7.47;;;7.10;99.90;;;;;;5055837;28;20054;-47
2022/11/24 01:46:20;;;;;;;28.65;8.10;;;7.10;99.90;;;;;;5052599;28;20458;-43
2022/11/24 01:49:21;;;;;;;29.40;6.93;;;7.10;99.90;;;;;;5054718;28;20041;-45
2022/11/24 01:52:08;;;;;;;30.85;6.88;;;7.10;99.90;;;;;;5054366;28;20155;-47
2022/11/24 01:54:42;;;;;;;31.15;7.35;;;7.10;99.90;;;;;;5055679;28;20083;-44
2022/11/24 01:57:31;;;;;;;30.30;6.95;;;7.00;99.90;;;;;;5054191;28;20500;-45
2022/11/24 02:00:05;;;;;;;26.58;6.40;;;6.90;99.90;;;;;;5056351;28;20045;-43
2022/11/24 02:02:30;;;;;;;25.48;5.95;;;7.00;99.90;;;;;;5055915;28;20068;-46
2022/11/24 02:04:59;;;;;;;30.10;6.53;;;6.90;99.90;;;;;;5055946;28;20040;-46
2022/11/24 02:07:25;;;;;;;25.88;5.93;;;7.00;99.90;;;;;;5053359;28;20048;-49
2022/11/24 02:09:55;;;;;;;27.15;6.82;;;6.90;99.90;;;;;;5054174;28;20071;-48
2022/11/24 02:12:23;;;;;;;25.63;6.45;;;7.00;99.90;;;;;;5055776;28;20123;-45
2022/11/24 02:14:49;;;;;;;33.72;6.95;;;7.00;99.90;;;;;;5038031;28;20048;-44
2022/11/24 02:17:15;;;;;;;28.45;6.28;;;7.00;99.90;;;;;;5054401;28;20056;-47
2022/11/24 02:19:43;;;;;;;20.85;5.63;;;7.10;99.90;;;;;;5054636;28;20059;-45
2022/11/24 02:22:40;;;;;;;33.25;7.13;;;7.00;99.90;;;;;;5050174;28;20049;-46
2022/11/24 02:25:24;;;;;;;32.55;6.80;;;7.10;99.90;;;;;;5054308;28;20068;-46
2022/11/24 02:27:52;;;;;;;27.10;6.55;;;7.20;99.90;;;;;;5055035;28;20067;-47
2022/11/24 02:30:17;;;;;;;32.00;7.50;;;7.10;99.90;;;;;;5054272;28;20071;-42
2022/11/24 02:32:43;;;;;;;28.98;6.00;;;7.30;99.90;;;;;;5055828;28;20482;-47
2022/11/24 02:35:10;;;;;;;30.00;6.90;;;7.30;99.90;;;;;;5055470;28;20047;-44
2022/11/24 02:37:36;;;;;;;33.28;6.93;;;7.30;99.90;;;;;;5052616;28;20052;-43
2022/11/24 02:40:03;;;;;;;30.30;7.40;;;7.40;99.90;;;;;;5054386;28;20047;-46
2022/11/24 02:42:35;;;;;;;27.23;6.60;;;7.30;99.90;;;;;;5054708;28;20040;-44
2022/11/24 02:45:01;;;;;;;23.27;5.82;;;7.30;99.90;;;;;;5051241;28;20451;-46
2022/11/24 02:47:27;;;;;;;32.70;7.13;;;7.40;99.90;;;;;;5054106;28;20127;-45
2022/11/24 02:49:52;;;;;;;23.55;6.18;;;7.40;99.90;;;;;;5055312;28;20072;-46
2022/11/24 02:52:18;;;;;;;28.40;5.90;;;7.40;99.90;;;;;;5054784;28;20116;-48
2022/11/24 02:54:44;;;;;;;30.27;5.78;;;7.40;99.90;;;;;;5054400;28;20074;-43
2022/11/24 02:57:10;;;;;;;27.88;6.75;;;7.30;99.90;;;;;;5052352;28;20101;-43
2022/11/24 02:59:36;;;;;;;29.63;7.25;;;7.40;99.90;;;;;;5054087;28;20044;-43
2022/11/24 03:02:02;;;;;;;26.00;6.28;;;7.30;99.90;;;;;;5048694;28;20043;-43
2022/11/24 03:04:28;;;;;;;25.65;5.93;;;7.30;99.90;;;;;;5052076;28;20317;-46
2022/11/24 03:06:53;;;;;;;33.35;7.57;;;7.30;99.90;;;;;;5050287;28;20379;-45
2022/11/24 03:09:19;;;;;;;26.73;5.70;;;7.20;99.90;;;;;;5052607;28;20442;-45
2022/11/24 03:11:45;;;;;;;25.63;5.75;;;7.10;99.90;;;;;;5053273;28;20127;-46
2022/11/24 03:14:11;;;;;;;32.13;5.90;;;7.10;99.90;;;;;;5054131;28;20368;-42
2022/11/24 03:16:36;;;;;;;21.25;5.80;;;7.00;99.90;;;;;;5053579;28;20126;-48
2022/11/24 03:19:03;;;;;;;29.15;6.32;;;7.00;99.90;;;;;;5054443;28;20091;-43
2022/11/24 03:21:28;;;;;;;34.72;7.38;;;6.90;99.90;;;;;;5049245;28;20045;-45
2022/11/24 03:23:54;;;;;;;27.48;5.72;;;6.90;99.90;;;;;;5055208;28;20537;-48
2022/11/24 03:26:21;;;;;;;25.27;4.82;;;6.90;99.90;;;;;;5052456;28;20056;-47
2022/11/24 03:28:47;;;;;;;20.60;5.18;;;6.90;99.90;;;;;;5053718;28;20052;-44
2022/11/24 03:31:13;;;;;;;25.35;6.57;;;6.90;99.90;;;;;;5054810;28;20055;-43
2022/11/24 03:33:39;;;;;;;27.17;6.03;;;6.80;99.90;;;;;;5054339;28;20473;-44
2022/11/24 03:36:06;;;;;;;22.20;5.90;;;6.80;99.90;;;;;;5054529;28;20045;-48
2022/11/24 03:38:32;;;;;;;22.75;5.43;;;6.80;99.90;;;;;;5052719;28;20090;-43
2022/11/24 03:40:58;;;;;;;23.50;6.18;;;6.80;99.90;;;;;;5054417;28;20053;-45
2022/11/24 03:43:24;;;;;;;22.52;6.10;;;6.70;99.90;;;;;;5052406;28;20040;-46
2022/11/24 03:45:50;;;;;;;23.73;6.07;;;6.70;99.90;;;;;;5049163;28;20052;-45
2022/11/24 03:48:17;;;;;;;21.98;4.65;;;6.70;99.90;;;;;;5051900;28;20059;-43
2022/11/24 03:50:51;;;;;;;28.90;5.28;;;6.70;99.90;;;;;;5051713;28;20080;-43
2022/11/24 03:53:16;;;;;;;28.08;5.85;;;6.70;99.90;;;;;;5041550;28;20052;-41
2022/11/24 03:55:42;;;;;;;26.13;6.20;;;6.70;99.90;;;;;;5052915;28;20041;-45
2022/11/24 03:58:08;;;;;;;24.10;5.07;;;6.70;99.90;;;;;;5051947;28;20044;-45
2022/11/24 04:00:33;;;;;;;22.92;5.00;;;6.60;99.90;;;;;;5053691;28;20565;-44
2022/11/24 04:02:59;;;;;;;23.77;5.80;;;6.60;99.90;;;;;;5053938;28;20479;-48
2022/11/24 04:05:25;;;;;;;22.00;6.03;;;6.50;99.90;;;;;;5053163;28;20043;-48
2022/11/24 04:07:54;;;;;;;22.00;5.30;;;6.60;99.90;;;;;;5052578;28;20533;-43
2022/11/24 04:10:19;;;;;;;28.80;5.93;;;6.50;99.90;;;;;;5053436;28;20083;-45
2022/11/24 04:12:45;;;;;;;27.63;5.30;;;6.50;99.90;;;;;;5052562;28;20087;-43
2022/11/24 04:15:16;;;;;;;27.80;5.57;;;6.50;99.90;;;;;;5034849;28;20044;-44
2022/11/24 04:17:43;;;;;;;29.77;5.72;;;6.60;99.90;;;;;;5051391;28;20127;-45
2022/11/24 04:20:09;;;;;;;26.42;5.78;;;6.50;99.90;;;;;;5052745;28;20052;-47
2022/11/24 04:22:35;;;;;;;22.75;5.75;;;6.50;99.90;;;;;;5048409;28;20047;-45
2022/11/24 04:25:02;;;;;;;27.42;5.65;;;6.50;99.90;;;;;;5052568;28;20045;-43
2022/11/24 04:27:28;;;;;;;25.88;6.40;;;6.40;99.90;;;;;;5050435;28;20127;-44
2022/11/24 04:29:53;;;;;;;24.05;5.65;;;6.40;99.90;;;;;;5052727;28;20371;-46
2022/11/24 04:32:19;;;;;;;31.30;6.15;;;6.50;99.90;;;;;;5052614;28;20041;-46
2022/11/24 04:34:45;;;;;;;22.15;5.55;;;6.40;99.90;;;;;;5051727;28;20043;-44
2022/11/24 04:37:11;;;;;;;25.60;5.60;;;6.30;99.90;;;;;;5051822;28;20150;-46
2022/11/24 04:39:36;;;;;;;25.08;5.75;;;6.40;99.90;;;;;;5015418;28;1077477;-42
2022/11/24 04:42:02;;;;;;;20.90;5.65;;;6.30;99.90;;;;;;5053941;28;20048;-42
2022/11/24 04:44:28;;;;;;;23.48;5.13;;;6.20;99.90;;;;;;5054052;28;20059;-45
2022/11/24 04:46:54;;;;;;;26.63;4.97;;;6.20;99.90;;;;;;5054895;28;20101;-43
2022/11/24 04:49:20;;;;;;;28.10;6.00;;;6.20;99.90;;;;;;5057431;28;20041;-43
2022/11/24 04:51:45;;;;;;;18.30;5.20;;;6.10;99.90;;;;;;5057337;28;20048;-44
2022/11/24 04:54:12;;;;;;;23.27;5.50;;;6.00;99.90;;;;;;5057120;28;20086;-46
2022/11/24 04:56:39;;;;;;;26.77;4.95;;;6.00;99.90;;;;;;5055952;28;20410;-44
2022/11/24 04:59:05;;;;;;;29.98;5.90;;;6.00;99.90;;;;;;5054858;28;20628;-43
2022/11/24 05:01:30;;;;;;;35.70;6.43;;;5.90;99.90;;;;;;5045313;28;20057;-46
2022/11/24 05:03:57;;;;;;;26.40;5.47;;;5.90;99.90;;;;;;5050340;28;20062;-42
2022/11/24 05:06:23;;;;;;;23.55;5.45;;;5.90;99.90;;;;;;5055323;28;20059;-45
2022/11/24 05:08:52;;;;;;;23.70;6.00;;;6.00;99.90;;;;;;5056180;28;20439;-42
2022/11/24 05:11:18;;;;;;;24.67;5.25;;;5.90;99.90;;;;;;5057037;28;20043;-44
2022/11/24 05:13:44;;;;;;;19.58;5.20;;;5.90;99.90;;;;;;5055977;28;20360;-42
2022/11/24 05:16:10;;;;;;;27.65;6.88;;;5.90;99.90;;;;;;5056046;28;20076;-42
2022/11/24 05:18:36;;;;;;;26.65;5.97;;;6.00;99.90;;;;;;5055508;28;20064;-48
2022/11/24 05:21:02;;;;;;;26.02;5.55;;;5.90;99.90;;;;;;5054650;28;20036;-45
2022/11/24 05:23:29;;;;;;;22.05;5.25;;;6.00;99.90;;;;;;5051279;28;20057;-47
2022/11/24 05:25:59;;;;;;;24.92;6.35;;;6.00;99.90;;;;;;5056656;28;20116;-47
2022/11/24 05:28:25;;;;;;;23.48;7.18;;;5.90;99.90;;;;;;5055130;28;20230;-46
2022/11/24 05:30:51;;;;;;;24.27;6.53;;;6.00;99.90;;;;;;5055600;28;20050;-42
2022/11/24 05:33:21;;;;;;;25.77;6.10;;;6.10;99.90;;;;;;5056103;28;20041;-42
2022/11/24 05:35:48;;;;;;;31.30;5.82;;;6.00;99.90;;;;;;5056234;28;20296;-42
2022/11/24 05:38:15;;;;;;;21.17;5.45;;;6.10;99.90;;;;;;5054999;28;20493;-45
2022/11/24 05:40:41;;;;;;;23.45;6.45;;;6.10;99.90;;;;;;5051244;28;20041;-42
2022/11/24 05:43:11;;;;;;;17.58;5.45;;;6.10;99.90;;;;;;5052854;28;20036;-45
2022/11/24 05:45:38;;;;;;;29.48;6.25;;;6.10;99.90;;;;;;5051736;28;20070;-42
2022/11/24 05:48:06;;;;;;;22.40;4.97;;;6.20;99.90;;;;;;5053968;28;20513;-45
2022/11/24 05:50:32;;;;;;;23.20;6.18;;;6.20;99.90;;;;;;5056946;28;20045;-45
2022/11/24 05:53:04;;;;;;;24.45;4.88;;;6.20;99.90;;;;;;5055259;28;20044;-45
2022/11/24 05:55:31;;;;;;;15.20;3.92;;;6.20;99.90;;;;;;5055501;28;20119;-45
2022/11/24 05:57:59;;;;;;;21.30;4.80;;;6.10;99.90;;;;;;5054917;28;20044;-44
2022/11/24 06:00:24;;;;;;;18.25;5.53;;;6.20;99.90;;;;;;5056161;28;20087;-44
2022/11/24 06:02:50;;;;;;;18.45;4.97;;;6.10;99.90;;;;;;5055879;28;20084;-48
2022/11/24 06:05:16;;;;;;;21.13;4.70;;;6.20;99.90;;;;;;5054392;28;20048;-48
2022/11/24 06:07:42;;;;;;;25.77;5.28;;;6.20;99.90;;;;;;5054554;28;20060;-49
2022/11/24 06:10:08;;;;;;;22.52;4.60;;;6.20;99.90;;;;;;5054317;28;20455;-42
2022/11/24 06:12:35;;;;;;;19.75;4.50;;;6.20;99.90;;;;;;5055689;28;20463;-46
2022/11/24 06:15:00;;;;;;;24.85;5.38;;;6.20;99.90;;;;;;5055622;28;20041;-43
2022/11/24 06:17:27;;;;;;;23.98;4.65;;;6.20;99.90;;;;;;5054181;28;20406;-43
2022/11/24 06:19:52;;;;;;;20.73;5.65;;;6.20;99.90;;;;;;5055234;28;20063;-48
2022/11/24 06:22:18;;;;;;;21.63;5.25;;;6.20;99.90;;;;;;5049104;28;20419;-45
2022/11/24 06:24:45;;;;;;;19.95;4.53;;;6.30;99.90;;;;;;5053199;28;20040;-46
2022/11/24 06:27:11;;;;;;;20.83;4.95;;;6.40;99.90;;;;;;5053815;28;20040;-45
2022/11/24 06:29:37;;;;;;;20.38;4.47;;;6.40;99.90;;;;;;5055424;28;20044;-49
2022/11/24 06:32:04;;;;;;;14.20;4.18;;;6.40;99.90;;;;;;5055641;28;20091;-48
2022/11/24 06:34:30;;;;;;;19.67;4.20;;;6.40;99.90;;;;;;5055273;28;20052;-46
2022/11/24 06:36:55;;;;;;;14.15;4.22;;;6.30;99.90;;;;;;5054199;28;20040;-46
2022/11/24 06:39:21;;;;;;;17.73;3.75;;;6.30;99.90;;;;;;5055362;28;20056;-42
2022/11/24 06:41:49;;;;;;;26.80;6.93;;;6.30;99.90;;;;;;5055186;28;20059;-43
2022/11/24 06:44:15;;;;;;;14.90;3.95;;;6.40;99.90;;;;;;5053834;28;20048;-45
2022/11/24 06:46:40;;;;;;;20.33;4.28;;;6.40;99.90;;;;;;5050675;28;20042;-43
2022/11/24 06:49:06;;;;;;;16.17;4.50;;;6.30;99.90;;;;;;5055494;28;20041;-42
2022/11/24 06:51:32;;;;;;;15.23;4.47;;;6.30;99.90;;;;;;5053403;28;20113;-46
2022/11/24 06:53:57;;;;;;;15.02;4.43;;;6.30;99.90;;;;;;5055107;28;20408;-44
2022/11/24 06:56:23;;;;;;;18.30;5.47;;;6.30;99.90;;;;;;5053791;28;20045;-47
2022/11/24 06:58:51;;;;;;;20.52;4.88;;;6.30;99.90;;;;;;5053969;28;20143;-45
2022/11/24 07:01:22;;;;;;;20.23;5.10;;;6.30;99.90;;;;;;5053370;28;20044;-50
2022/11/24 07:03:48;;;;;;;18.00;5.47;;;6.30;99.90;;;;;;5053833;28;20059;-45
2022/11/24 07:06:16;;;;;;;23.10;5.55;;;6.40;99.90;;;;;;5053413;28;20477;-48
2022/11/24 07:08:41;;;;;;;23.55;6.50;;;6.30;99.90;;;;;;5054516;28;20044;-43
2022/11/24 07:11:10;;;;;;;16.90;6.10;;;6.30;99.90;;;;;;5054838;28;20044;-47
2022/11/24 07:13:36;;;;;;;21.15;7.35;;;6.30;99.90;;;;;;5054892;28;20050;-43
2022/11/24 07:16:14;;;;;;;20.10;6.70;;;6.30;99.90;;;;;;5052501;28;20040;-44
2022/11/24 07:18:41;;;;;;;21.33;6.85;;;6.20;99.90;;;;;;5053914;28;20048;-42
2022/11/24 07:21:07;;;;;;;18.58;6.60;;;6.20;99.90;;;;;;5053972;28;20080;-44
2022/11/24 07:23:33;;;;;;;18.55;6.55;;;6.20;99.90;;;;;;5050812;28;20683;-42
2022/11/24 07:26:01;;;;;;;21.48;7.72;;;6.20;99.90;;;;;;5053743;28;20293;-48
2022/11/24 07:28:27;;;;;;;18.83;7.10;;;6.20;99.90;;;;;;5050721;28;20510;-46
2022/11/24 07:30:52;;;;;;;22.35;6.93;;;6.10;99.90;;;;;;5051403;28;20094;-48
2022/11/24 07:33:23;;;;;;;18.70;8.00;;;6.20;99.90;;;;;;5047821;28;20081;-46
2022/11/24 07:35:52;;;;;;;28.17;8.10;;;6.20;99.90;;;;;;5064989;28;20581;-45
2022/11/24 07:38:18;;;;;;;22.83;8.60;;;6.20;99.90;;;;;;5029540;28;20049;-47
2022/11/24 07:40:44;;;;;;;27.95;8.75;;;6.20;99.90;;;;;;5045364;28;20045;-44
2022/11/24 07:43:10;;;;;;;26.02;8.10;;;6.10;99.90;;;;;;5052980;28;20051;-47
2022/11/24 07:45:36;;;;;;;19.27;7.38;;;6.10;99.90;;;;;;5049886;28;20087;-46
2022/11/24 07:48:02;;;;;;;19.35;7.82;;;6.20;99.90;;;;;;5051309;28;20486;-44
2022/11/24 07:50:27;;;;;;;20.23;8.45;;;6.10;99.90;;;;;;5053644;28;20130;-43
2022/11/24 07:52:53;;;;;;;18.88;7.80;;;6.10;99.90;;;;;;5053435;28;20130;-44
2022/11/24 07:55:19;;;;;;;27.33;8.65;;;6.10;99.90;;;;;;5053431;28;20040;-45
2022/11/24 07:57:44;;;;;;;25.30;8.00;;;6.20;99.90;;;;;;5051853;28;20666;-47
2022/11/24 08:00:11;;;;;;;23.05;8.38;;;6.10;99.90;;;;;;5053088;28;20131;-44
2022/11/24 08:02:37;;;;;;;22.48;8.68;;;6.10;99.90;;;;;;5051395;28;20390;-44
2022/11/24 08:05:04;;;;;;;21.83;7.90;;;6.10;99.90;;;;;;5053155;28;20040;-45
2022/11/24 08:07:29;;;;;;;26.80;9.07;;;6.20;99.90;;;;;;5051630;28;20119;-45
2022/11/24 08:09:55;;;;;;;29.10;9.48;;;6.20;99.90;;;;;;5039669;28;20610;-46
2022/11/24 08:12:21;;;;;;;24.90;9.70;;;6.30;99.90;;;;;;5050826;28;20076;-41
2022/11/24 08:14:50;;;;;;;21.83;9.40;;;6.30;99.90;;;;;;5071823;28;20118;-44
2022/11/24 08:17:16;;;;;;;25.27;8.90;;;6.30;99.90;;;;;;5031848;28;20053;-47
2022/11/24 08:19:42;;;;;;;18.38;8.52;;;6.40;99.90;;;;;;5043922;28;20044;-45
2022/11/24 08:22:08;;;;;;;21.58;8.48;;;6.50;99.90;;;;;;5037512;28;20063;-47
2022/11/24 08:24:34;;;;;;;19.60;8.02;;;6.40;99.90;;;;;;5045551;28;20048;-46
2022/11/24 08:27:00;;;;;;;21.13;8.07;;;6.50;99.90;;;;;;5039896;28;20855;-45
2022/11/24 08:29:29;;;;;;;19.58;7.82;;;6.50;99.90;;;;;;5047974;28;20197;-46
2022/11/24 08:31:56;;;;;;;19.45;7.57;;;6.50;99.90;;;;;;5039185;28;20062;-46
2022/11/24 08:34:23;;;;;;;20.23;8.30;;;6.60;99.90;;;;;;5040284;28;20048;-44
2022/11/24 08:36:49;;;;;;;15.95;6.90;;;6.70;99.90;;;;;;5053522;28;20095;-46
2022/11/24 08:39:15;;;;;;;13.90;6.63;;;6.80;99.90;;;;;;5051626;28;20056;-46
2022/11/24 08:41:41;;;;;;;15.40;6.38;;;6.80;99.90;;;;;;5054190;28;20473;-46
2022/11/24 08:44:09;;;;;;;16.48;5.47;;;6.80;99.90;;;;;;5056605;28;20521;-45
2022/11/24 08:46:34;;;;;;;14.75;4.85;;;6.90;99.90;;;;;;5039927;28;20477;-45
2022/11/24 08:49:00;;;;;;;14.32;5.25;;;6.90;99.90;;;;;;5055135;28;20048;-48
2022/11/24 08:51:26;;;;;;;14.57;5.30;;;7.00;99.90;;;;;;5094435;27;20131;-43
2022/11/24 08:53:57;;;;;;;16.65;5.55;;;7.00;99.90;;;;;;5048138;28;20460;-45
2022/11/24 08:56:24;;;;;;;13.90;4.93;;;7.00;99.90;;;;;;5055688;28;20091;-45
2022/11/24 08:58:50;;;;;;;12.85;4.93;;;7.00;99.90;;;;;;5038119;28;20160;-43
2022/11/24 09:01:17;;;;;;;14.15;4.70;;;7.00;99.90;;;;;;5054792;28;20163;-46
2022/11/24 09:03:45;;;;;;;9.00;3.60;;;6.90;99.90;;;;;;5056191;28;20225;-42
2022/11/24 09:06:11;;;;;;;9.70;4.28;;;6.90;99.90;;;;;;5055664;28;20403;-44
2022/11/24 09:08:37;;;;;;;12.45;4.60;;;6.90;99.90;;;;;;5056747;28;20056;-46
2022/11/24 09:11:06;;;;;;;18.20;4.22;;;6.90;99.90;;;;;;5056004;28;20067;-47
2022/11/24 09:13:32;;;;;;;9.73;3.47;;;7.00;99.90;;;;;;5056205;28;20044;-44
2022/11/24 09:16:09;;;;;;;9.27;3.70;;;7.10;99.90;;;;;;5055868;28;20041;-45
2022/11/24 09:18:35;;;;;;;7.88;4.50;;;7.20;99.90;;;;;;5055911;28;20049;-42
2022/11/24 09:21:09;;;;;;;11.38;4.15;;;7.30;99.90;;;;;;5056289;28;20052;-44
2022/11/24 09:23:36;;;;;;;10.80;3.65;;;7.40;99.90;;;;;;5042431;28;20133;-44
2022/11/24 09:26:03;;;;;;;13.88;5.07;;;7.50;99.90;;;;;;5033060;28;20048;-43
2022/11/24 09:28:29;;;;;;;8.10;3.05;;;7.50;99.90;;;;;;5046782;28;20214;-47
2022/11/24 09:30:58;;;;;;;13.95;3.95;;;7.50;99.90;;;;;;5051652;28;20672;-49
2022/11/24 09:33:24;;;;;;;7.53;3.25;;;7.50;99.90;;;;;;5051711;28;20564;-45
2022/11/24 09:35:49;;;;;;;13.23;3.45;;;7.50;99.90;;;;;;5050581;28;20139;-46
2022/11/24 09:38:15;;;;;;;12.13;4.53;;;7.50;99.90;;;;;;5051258;28;20058;-46
2022/11/24 09:40:41;;;;;;;10.07;4.10;;;7.50;99.90;;;;;;5042872;28;20053;-47
2022/11/24 09:43:37;;;;;;;12.23;3.70;;;7.60;99.90;;;;;;5046195;28;20045;-45
2022/11/24 09:46:39;;;;;;;10.68;3.35;;;7.60;99.90;;;;;;5054027;28;20048;-43
2022/11/24 09:49:12;;;;;;;10.90;3.60;;;7.60;99.90;;;;;;5045645;28;20056;-44
2022/11/24 09:51:41;;;;;;;9.18;3.70;;;7.70;99.90;;;;;;5066899;28;20475;-43
2022/11/24 09:54:21;;;;;;;9.85;3.65;;;7.70;99.90;;;;;;5073008;28;20048;-49
2022/11/24 09:56:50;;;;;;;11.65;4.53;;;7.70;99.90;;;;;;5050799;28;20503;-45
2022/11/24 09:59:22;;;;;;;8.40;4.60;;;7.70;99.90;;;;;;5050233;28;20067;-46
2022/11/24 10:01:50;;;;;;;9.48;4.22;;;7.80;99.90;;;;;;5039502;28;20511;-47
2022/11/24 10:04:16;;;;;;;10.90;4.95;;;7.80;99.90;;;;;;5049497;28;20068;-42
2022/11/24 10:06:54;;;;;;;13.77;4.97;;;7.80;99.90;;;;;;5049085;28;20514;-43
2022/11/24 10:09:33;;;;;;;13.52;5.93;;;7.90;99.90;;;;;;5045311;28;20059;-47
2022/11/24 10:12:49;;;;;;;10.27;4.55;;;7.90;99.90;;;;;;5053767;28;20044;-43
2022/11/24 10:15:56;;;;;;;12.20;4.93;;;8.00;99.90;;;;;;5000268;28;20567;-48
2022/11/24 10:18:37;;;;;;;11.20;4.78;;;8.10;99.90;;;;;;5012517;28;20069;-42
2022/11/24 10:21:14;;;;;;;10.27;4.95;;;8.10;99.90;;;;;;5011597;28;20057;-43
2022/11/24 10:23:57;;;;;;;10.73;5.10;;;8.10;99.90;;;;;;5011172;28;20087;-49
2022/11/24 10:26:31;;;;;;;14.03;4.90;;;8.10;99.90;;;;;;5012648;28;20106;-45
2022/11/24 10:28:56;;;;;;;11.27;4.18;;;8.20;99.90;;;;;;5012827;28;20045;-42
2022/11/24 10:31:36;;;;;;;12.05;4.88;;;8.20;99.90;;;;;;5011808;28;20073;-46
2022/11/24 10:34:37;;;;;;;11.70;4.00;;;8.20;99.90;;;;;;5011744;28;20085;-44
2022/11/24 10:37:16;;;;;;;12.35;3.88;;;8.30;99.90;;;;;;5010818;28;20057;-43
2022/11/24 10:40:04;;;;;;;11.85;3.55;;;8.30;99.90;;;;;;5011976;28;20163;-44
2022/11/24 10:42:31;;;;;;;8.73;4.28;;;8.30;99.90;;;;;;5008986;28;20049;-47
2022/11/24 10:45:02;;;;;;;8.63;3.72;;;8.40;99.90;;;;;;5010778;28;20053;-42
2022/11/24 10:47:29;;;;;;;12.90;4.32;;;8.40;99.90;;;;;;4996655;28;20041;-43
2022/11/24 10:50:03;;;;;;;9.88;4.00;;;8.40;99.90;;;;;;4998009;28;20050;-49
2022/11/24 10:52:35;;;;;;;15.18;5.78;;;8.50;99.90;;;;;;5035567;28;20119;-43
2022/11/24 10:55:04;;;;;;;16.20;5.28;;;8.50;99.90;;;;;;5037676;28;20041;-48
2022/11/24 10:57:32;;;;;;;14.40;4.90;;;8.50;99.90;;;;;;5050811;28;20468;-49
2022/11/24 10:59:58;;;;;;;13.57;4.35;;;8.60;99.90;;;;;;5052063;28;20055;-47
2022/11/24 11:02:43;;;;;;;13.30;4.82;;;8.60;99.90;;;;;;5054297;28;20052;-45
2022/11/24 11:05:40;;;;;;;13.80;4.60;;;8.60;99.90;;;;;;5053824;28;20125;-48
2022/11/24 11:08:21;;;;;;;14.13;4.00;;;8.60;99.90;;;;;;5052593;28;20046;-45
2022/11/24 11:11:12;;;;;;;11.82;4.38;;;8.70;99.90;;;;;;5053856;28;20620;-43
2022/11/24 11:13:54;;;;;;;13.77;4.32;;;8.70;99.90;;;;;;5051475;28;20048;-42
2022/11/24 11:16:49;;;;;;;16.75;4.63;;;8.80;99.90;;;;;;5050845;28;20040;-45
2022/11/24 11:19:42;;;;;;;11.55;4.22;;;8.80;99.90;;;;;;5051509;28;20383;-45
2022/11/24 11:22:11;;;;;;;11.13;3.80;;;8.80;99.90;;;;;;5053773;28;20051;-47
2022/11/24 11:24:41;;;;;;;17.40;4.72;;;8.90;99.90;;;;;;5068500;28;20064;-46
2022/11/24 11:27:20;;;;;;;11.80;3.80;;;8.90;99.90;;;;;;5050993;28;20043;-43
2022/11/24 11:29:47;;;;;;;13.43;4.20;;;8.90;99.90;;;;;;5049724;28;20097;-44
2022/11/24 11:32:26;;;;;;;15.20;4.20;;;8.90;99.90;;;;;;5040148;28;20102;-45
2022/11/24 11:34:54;;;;;;;15.68;4.35;;;9.00;99.90;;;;;;5050151;28;20045;-44
2022/11/24 11:37:26;;;;;;;14.15;4.32;;;9.00;99.90;;;;;;5052900;28;20123;-45
2022/11/24 11:39:57;;;;;;;18.60;4.43;;;9.00;99.90;;;;;;5054165;28;20040;-45
2022/11/24 11:42:31;;;;;;;10.82;3.90;;;9.10;99.90;;;;;;5050306;28;20056;-45
2022/11/24 11:45:36;;;;;;;12.25;4.47;;;9.10;99.90;;;;;;5060666;28;20054;-45
2022/11/24 11:48:02;;;;;;;16.73;4.93;;;9.10;99.90;;;;;;5019601;28;20065;-48
2022/11/24 11:50:57;;;;;;;13.00;4.25;;;9.20;99.90;;;;;;5014102;28;20061;-44
2022/11/24 11:56:43;;;;;;;13.57;4.35;;;9.20;99.90;;;;;;5035201;28;20139;-43
2022/11/24 11:59:44;;;;;;;17.85;3.42;;;9.30;99.90;;;;;;5018778;28;20606;-42
2022/11/24 12:02:28;;;;;;;10.20;4.35;;;9.30;99.90;;;;;;5035391;28;20053;-43
2022/11/24 12:05:21;;;;;;;11.48;3.63;;;9.30;99.90;;;;;;5034501;28;20065;-50
2022/11/24 12:08:11;;;;;;;13.95;3.20;;;9.40;99.90;;;;;;5027958;28;20064;-42
2022/11/24 12:10:42;;;;;;;11.73;3.30;;;9.40;99.90;;;;;;5034965;28;20492;-42
2022/11/24 12:13:34;;;;;;;18.88;4.45;;;9.40;99.90;;;;;;5034384;28;20056;-43
2022/11/24 12:16:18;;;;;;;13.20;3.40;;;9.50;99.90;;;;;;5034516;28;20136;-51
2022/11/24 12:19:24;;;;;;;11.60;3.25;;;9.50;99.90;;;;;;5034862;28;20049;-44
2022/11/24 12:22:37;;;;;;;14.30;4.72;;;9.60;99.90;;;;;;5018803;28;20643;-46
2022/11/24 12:25:22;;;;;;;12.80;3.13;;;9.60;99.90;;;;;;4973401;28;20421;-47
2022/11/24 12:28:25;;;;;;;16.38;3.15;;;9.60;99.90;;;;;;4974715;28;20054;-44
2022/11/24 12:30:56;;;;;;;19.30;4.00;;;9.70;99.90;;;;;;4974670;28;20051;-42
2022/11/24 12:34:06;;;;;;;11.10;3.47;;;9.80;99.90;;;;;;4972300;28;20532;-45
2022/11/24 12:36:56;;;;;;;18.17;3.40;;;9.80;99.90;;;;;;4961575;28;20608;-49
2022/11/24 12:39:26;;;;;;;18.38;3.65;;;9.80;99.90;;;;;;4974721;28;20077;-45
2022/11/24 12:42:11;;;;;;;18.45;3.47;;;9.90;99.90;;;;;;4975396;28;20058;-45
2022/11/24 12:44:46;;;;;;;18.80;4.28;;;9.80;99.90;;;;;;4974318;28;20066;-44
2022/11/24 12:47:40;;;;;;;17.65;3.40;;;9.90;99.90;;;;;;4974844;28;20576;-42
2022/11/24 12:50:18;;;;;;;18.40;3.72;;;9.90;99.90;;;;;;4955853;28;20066;-45
2022/11/24 12:53:01;;;;;;;18.30;3.42;;;10.10;99.90;;;;;;4947999;28;20063;-43
2022/11/24 12:55:29;;;;;;;11.98;3.10;;;10.10;99.90;;;;;;4950997;28;20142;-43
2022/11/24 12:58:13;;;;;;;17.58;3.88;;;10.10;99.90;;;;;;4954702;28;20059;-49
2022/11/24 13:00:55;;;;;;;11.80;3.28;;;10.10;99.90;;;;;;4941481;28;20359;-45
2022/11/24 13:03:29;;;;;;;17.15;3.33;;;10.10;99.90;;;;;;5025854;28;20052;-45
2022/11/24 13:06:10;;;;;;;20.95;3.65;;;10.10;99.90;;;;;;5020638;28;20037;-45